Time;durP1;ratioP1;P1;durP2;ratioP2;P2;SDS_P1;SDS_P2;PMS_P1;PMS_P2;Temp;Humidity;BMP_temperature;BMP_pressure;BME280_temperature;BME280_humidity;BME280_pressure;Samples;Min_cycle;Max_cycle;Signal;HPM_P1;HPM_P2
2021/10/14 00:03:14;;;;;;;47.25;23.45;;;;;;;6.53;100.00;99662.97;4400774;80;28460;-81
2021/10/14 00:09:16;;;;;;;42.17;21.70;;;;;;;6.40;100.00;99667.69;4418145;78;28434;-82
2021/10/14 00:15:18;;;;;;;42.62;21.68;;;;;;;6.46;100.00;99667.93;4419212;80;28454;-81
2021/10/14 00:21:19;;;;;;;39.00;21.60;;;;;;;6.44;100.00;99658.76;4418681;81;28466;-81
2021/10/14 00:27:20;;;;;;;38.40;20.65;;;;;;;6.46;100.00;99659.42;4419322;80;28454;-82
2021/10/14 00:33:22;;;;;;;38.38;19.55;;;;;;;6.37;100.00;99665.36;4418612;80;28482;-81
2021/10/14 00:39:23;;;;;;;44.03;22.13;;;;;;;6.44;100.00;99657.42;4419683;80;28492;-82
2021/10/14 00:45:25;;;;;;;43.58;23.20;;;;;;;6.50;100.00;99654.50;4418627;80;28482;-82
2021/10/14 00:51:27;;;;;;;41.92;22.15;;;;;;;6.53;100.00;99656.30;4419303;80;28470;-82
2021/10/14 00:57:29;;;;;;;40.88;21.55;;;;;;;6.47;100.00;99666.41;4423229;80;28485;-82
2021/10/14 01:03:31;;;;;;;39.63;20.75;;;;;;;6.36;100.00;99660.23;4450517;80;28488;-82
2021/10/14 01:09:33;;;;;;;38.17;21.87;;;;;;;6.37;100.00;99657.35;4428042;79;28534;-82
2021/10/14 01:15:37;;;;;;;46.13;25.20;;;;;;;6.37;100.00;99664.55;4429283;80;28511;-81
2021/10/14 01:21:40;;;;;;;44.70;24.63;;;;;;;6.31;100.00;99671.48;4377533;80;28568;-80
2021/10/14 01:27:41;;;;;;;45.25;23.73;;;;;;;6.28;100.00;99661.15;4435959;78;28453;-82
2021/10/14 01:33:43;;;;;;;43.08;22.55;;;;;;;6.31;100.00;99666.63;4357348;81;28441;-83
2021/10/14 01:39:44;;;;;;;43.15;23.20;;;;;;;6.34;100.00;99665.75;4386637;81;28460;-82
2021/10/14 01:45:45;;;;;;;41.63;24.27;;;;;;;6.31;100.00;99670.63;4375394;80;28457;-80
2021/10/14 01:51:46;;;;;;;46.92;24.43;;;;;;;6.31;100.00;99671.97;4267537;80;28475;-81
2021/10/14 01:57:47;;;;;;;41.37;23.12;;;;;;;6.25;100.00;99676.22;4321083;82;28535;-82
2021/10/14 02:03:49;;;;;;;40.90;21.33;;;;;;;6.25;100.00;99685.56;4321681;82;28467;-81
2021/10/14 02:09:50;;;;;;;42.03;22.73;;;;;;;6.28;100.00;99689.19;4373010;80;28507;-80
2021/10/14 02:15:51;;;;;;;42.60;22.82;;;;;;;6.37;100.00;99697.42;4393122;81;28501;-80
2021/10/14 02:21:53;;;;;;;40.05;21.87;;;;;;;6.30;100.00;99695.20;4394874;81;28476;-81
2021/10/14 02:27:54;;;;;;;38.08;20.20;;;;;;;6.29;100.00;99689.50;4394456;81;28471;-80
2021/10/14 02:33:55;;;;;;;39.15;20.25;;;;;;;6.19;100.00;99683.14;4393638;81;28496;-80
2021/10/14 02:39:56;;;;;;;34.70;19.62;;;;;;;6.18;100.00;99689.98;4394771;81;28448;-81
2021/10/14 02:45:58;;;;;;;36.20;19.92;;;;;;;6.09;100.00;99702.62;4394399;81;28480;-81
2021/10/14 02:51:59;;;;;;;31.82;18.70;;;;;;;5.92;100.00;99705.95;4393523;81;28470;-81
2021/10/14 02:58:01;;;;;;;33.53;17.30;;;;;;;5.82;100.00;99713.73;4392528;81;28492;-82
2021/10/14 03:04:02;;;;;;;29.65;17.48;;;;;;;5.61;100.00;99711.76;4392691;80;28546;-81
2021/10/14 03:10:06;;;;;;;32.42;17.50;;;;;;;5.58;100.00;99712.98;4372585;81;28504;-81
2021/10/14 03:16:07;;;;;;;31.62;18.77;;;;;;;5.56;100.00;99714.97;4392626;81;28479;-80
2021/10/14 03:22:08;;;;;;;35.43;19.70;;;;;;;5.45;100.00;99718.08;4393043;81;28516;-82
2021/10/14 03:28:10;;;;;;;30.52;17.48;;;;;;;5.25;100.00;99727.91;4392007;81;28440;-81
2021/10/14 03:34:11;;;;;;;32.00;18.37;;;;;;;5.21;100.00;99726.63;4391913;81;28483;-82
2021/10/14 03:40:16;;;;;;;30.60;18.50;;;;;;;5.06;100.00;99733.75;4393014;81;28482;-81
2021/10/14 03:46:17;;;;;;;31.82;18.32;;;;;;;5.21;100.00;99744.47;4393327;81;28472;-82
2021/10/14 03:52:18;;;;;;;37.75;21.42;;;;;;;5.40;100.00;99747.14;4391936;81;28463;-82
2021/10/14 03:58:19;;;;;;;41.35;22.98;;;;;;;5.50;100.00;99752.21;4395545;81;28492;-82
2021/10/14 04:04:23;;;;;;;36.20;20.90;;;;;;;5.43;100.00;99754.78;4396817;81;28456;-83
2021/10/14 04:10:24;;;;;;;35.58;20.00;;;;;;;5.44;100.00;99755.94;4411491;81;28495;-82
2021/10/14 04:16:25;;;;;;;36.50;20.05;;;;;;;5.54;100.00;99757.01;4408588;81;28460;-83
2021/10/14 04:22:29;;;;;;;31.02;17.87;;;;;;;5.63;100.00;99759.12;4411473;80;28603;-83
2021/10/14 04:28:31;;;;;;;31.15;16.75;;;;;;;5.70;100.00;99762.70;4406840;81;28438;-82
2021/10/14 04:34:33;;;;;;;27.07;16.97;;;;;;;5.81;100.00;99771.27;4333881;82;28496;-82
2021/10/14 04:40:34;;;;;;;29.75;15.65;;;;;;;5.76;100.00;99779.01;4332098;82;28469;-80
2021/10/14 04:46:36;;;;;;;28.15;16.27;;;;;;;5.78;100.00;99786.33;4332315;82;28503;-81
2021/10/14 04:52:38;;;;;;;25.88;14.53;;;;;;;5.86;100.00;99797.73;4332133;82;28555;-82
2021/10/14 04:58:39;;;;;;;26.62;16.75;;;;;;;5.82;100.00;99798.28;4333361;82;28540;-82
2021/10/14 05:04:41;;;;;;;28.10;16.62;;;;;;;5.91;100.00;99804.39;4332626;82;28472;-83
2021/10/14 05:10:42;;;;;;;25.95;15.38;;;;;;;5.81;100.00;99810.81;4318880;82;28539;-81
2021/10/14 05:16:44;;;;;;;24.85;15.38;;;;;;;5.82;100.00;99809.80;4319539;82;28518;-81
2021/10/14 05:22:45;;;;;;;26.85;16.12;;;;;;;5.92;100.00;99808.72;4319182;82;28485;-81
2021/10/14 05:28:47;;;;;;;29.72;17.27;;;;;;;6.02;100.00;99804.47;4319667;82;28500;-82
2021/10/14 05:34:48;;;;;;;23.77;14.30;;;;;;;6.08;100.00;99814.43;4319020;82;28532;-83
2021/10/14 05:40:50;;;;;;;26.70;14.63;;;;;;;6.05;100.00;99815.62;4322970;82;28498;-82
2021/10/14 05:46:52;;;;;;;27.27;15.00;;;;;;;6.09;100.00;99824.09;4319185;82;28559;-82
2021/10/14 05:52:53;;;;;;;25.30;14.07;;;;;;;6.15;100.00;99826.05;4333476;81;28521;-83
2021/10/14 05:58:55;;;;;;;27.13;14.43;;;;;;;6.03;100.00;99833.66;4329747;81;28500;-83
2021/10/14 06:04:56;;;;;;;28.83;15.60;;;;;;;6.21;100.00;99834.64;4333309;81;28519;-87
2021/10/14 06:10:58;;;;;;;31.73;18.23;;;;;;;6.19;100.00;99842.02;4370171;80;28455;-84
2021/10/14 06:16:59;;;;;;;33.40;17.92;;;;;;;6.28;100.00;99844.92;4384947;80;28500;-85
2021/10/14 06:23:04;;;;;;;38.48;19.75;;;;;;;6.23;100.00;99847.83;4375013;81;28532;-86
2021/10/14 06:29:06;;;;;;;37.20;19.77;;;;;;;6.35;100.00;99848.19;4340988;81;28509;-86
2021/10/14 06:35:07;;;;;;;40.30;20.92;;;;;;;6.23;100.00;99849.97;4309120;82;28466;-86
2021/10/14 06:41:09;;;;;;;42.80;21.00;;;;;;;6.26;100.00;99842.11;4369896;80;28490;-85
2021/10/14 06:47:10;;;;;;;35.73;18.00;;;;;;;6.36;100.00;99858.69;4304568;81;28489;-85
2021/10/14 06:53:11;;;;;;;35.65;18.50;;;;;;;6.52;100.00;99855.53;4299771;82;28479;-86
2021/10/14 06:59:13;;;;;;;33.20;17.48;;;;;;;6.75;100.00;99857.27;4323647;82;28467;-87
2021/10/14 07:05:14;;;;;;;32.55;16.90;;;;;;;6.93;100.00;99860.88;4343097;81;28558;-86
2021/10/14 07:11:16;;;;;;;30.25;15.08;;;;;;;7.11;100.00;99858.64;4285573;82;28437;-86
2021/10/14 07:17:17;;;;;;;27.20;14.35;;;;;;;6.98;100.00;99859.83;4276462;82;28435;-87
2021/10/14 07:23:18;;;;;;;28.30;14.90;;;;;;;7.24;100.00;99865.16;4274510;82;28465;-85
2021/10/14 07:29:20;;;;;;;27.05;14.75;;;;;;;7.31;100.00;99861.20;4254708;81;28469;-85
2021/10/14 07:35:21;;;;;;;27.42;14.63;;;;;;;7.47;100.00;99863.66;4283518;83;28496;-87
2021/10/14 07:41:22;;;;;;;28.57;14.13;;;;;;;7.57;100.00;99857.16;4276099;82;28538;-88
2021/10/14 07:47:26;;;;;;;30.17;15.40;;;;;;;7.94;100.00;99853.38;4229932;83;28505;-89
2021/10/14 07:53:27;;;;;;;33.20;16.97;;;;;;;7.93;100.00;99846.86;4289517;82;28458;-86
2021/10/14 07:59:28;;;;;;;26.60;13.95;;;;;;;7.81;100.00;99848.73;4281534;82;28464;-85
2021/10/14 08:05:30;;;;;;;26.12;14.18;;;;;;;8.07;100.00;99847.80;4275537;82;28437;-88
2021/10/14 08:11:31;;;;;;;26.33;14.13;;;;;;;8.13;100.00;99848.86;4346477;81;28462;-85
2021/10/14 08:17:33;;;;;;;27.98;14.35;;;;;;;7.95;100.00;99848.33;4298914;83;28450;-86
2021/10/14 08:23:34;;;;;;;25.68;14.53;;;;;;;8.01;100.00;99850.73;4352737;80;28467;-85
2021/10/14 08:29:36;;;;;;;23.45;13.08;;;;;;;8.05;100.00;99850.66;4283416;82;28490;-84
2021/10/14 08:35:37;;;;;;;27.02;13.48;;;;;;;8.07;100.00;99840.60;4340072;82;28479;-85
2021/10/14 08:41:39;;;;;;;27.20;13.48;;;;;;;8.11;100.00;99845.56;4313446;82;28485;-88
2021/10/14 08:47:41;;;;;;;23.98;12.47;;;;;;;8.20;100.00;99844.39;4285700;82;28460;-80
2021/10/14 08:53:47;;;;;;;26.93;13.62;;;;;;;8.48;100.00;99839.50;4339851;82;28479;-88
2021/10/14 08:59:49;;;;;;;24.98;12.85;;;;;;;8.08;100.00;99840.08;4301419;81;28481;-87
2021/10/14 09:05:50;;;;;;;23.95;12.40;;;;;;;8.09;100.00;99841.72;4329338;79;28473;-87
2021/10/14 09:12:05;;;;;;;25.62;12.88;;;;;;;8.20;100.00;99837.70;4313633;82;28439;-85
2021/10/14 09:18:07;;;;;;;23.27;11.97;;;;;;;8.36;100.00;99836.03;4315295;81;28520;-84
2021/10/14 09:24:36;;;;;;;19.32;11.10;;;;;;;8.53;100.00;99825.53;4325780;81;28549;-84
2021/10/14 09:30:48;;;;;;;14.10;7.55;;;;;;;8.59;100.00;99839.50;4319664;81;28439;-86
2021/10/14 09:36:50;;;;;;;14.75;7.30;;;;;;;8.87;100.00;99826.53;4321804;81;28580;-82
2021/10/14 09:42:54;;;;;;;13.88;7.50;;;;;;;8.96;100.00;99825.83;4288128;82;28480;-83
2021/10/14 09:48:55;;;;;;;14.83;8.10;;;;;;;9.20;100.00;99815.08;4301969;81;28538;-83
2021/10/14 09:54:57;;;;;;;12.25;6.97;;;;;;;9.28;100.00;99817.58;4284308;83;28455;-85
2021/10/14 10:01:00;;;;;;;14.90;8.48;;;;;;;9.29;100.00;99816.55;4294636;81;28444;-84
2021/10/14 10:07:03;;;;;;;17.12;8.63;;;;;;;9.34;100.00;99819.42;4277064;82;28480;-85
2021/10/14 10:13:05;;;;;;;9.60;5.37;;;;;;;9.35;100.00;99822.42;4298842;81;28533;-89
2021/10/14 10:19:07;;;;;;;7.90;4.60;;;;;;;9.47;100.00;99825.84;4279483;83;28504;-87
2021/10/14 10:25:28;;;;;;;9.68;5.35;;;;;;;9.60;100.00;99803.56;4284440;81;28494;-89
2021/10/14 10:31:56;;;;;;;7.70;4.53;;;;;;;9.78;100.00;99805.63;4276743;82;28452;-90
2021/10/14 10:38:03;;;;;;;10.10;5.72;;;;;;;10.05;92.62;99789.50;4289329;83;28508;-86
2021/10/14 10:44:05;;;;;;;7.20;4.03;;;;;;;10.30;88.19;99774.03;4282540;83;28459;-84
2021/10/14 10:50:11;;;;;;;8.78;4.42;;;;;;;10.90;94.61;99766.81;4288831;82;28550;-83
2021/10/14 10:56:34;;;;;;;7.33;3.12;;;;;;;11.00;82.88;99771.20;4255917;83;28498;-81
2021/10/14 11:02:36;;;;;;;5.53;3.45;;;;;;;11.10;74.58;99759.45;4286981;82;28463;-86
2021/10/14 11:08:38;;;;;;;5.60;3.17;;;;;;;11.18;73.91;99754.83;4316047;81;28447;-82
2021/10/14 11:14:40;;;;;;;5.00;2.90;;;;;;;11.27;72.33;99744.10;4366393;80;28545;-87
2021/10/14 11:20:55;;;;;;;4.95;2.67;;;;;;;11.28;64.25;99727.74;4390945;78;28497;-87
2021/10/14 11:26:56;;;;;;;4.60;2.87;;;;;;;11.22;61.06;99729.95;4387968;78;28488;-86
2021/10/14 11:33:08;;;;;;;6.08;3.47;;;;;;;11.25;63.31;99717.42;4390902;78;28453;-87
2021/10/14 11:39:09;;;;;;;7.30;3.75;;;;;;;11.20;69.52;99709.70;4387607;78;28593;-87
2021/10/14 11:45:10;;;;;;;6.10;3.30;;;;;;;11.27;69.04;99707.25;4403589;78;28497;-85
2021/10/14 11:51:12;;;;;;;4.90;3.02;;;;;;;11.33;70.16;99706.06;4396010;78;28518;-86
2021/10/14 11:57:13;;;;;;;4.35;2.75;;;;;;;11.40;67.62;99705.48;4377967;78;28462;-87
2021/10/14 12:03:14;;;;;;;5.58;2.92;;;;;;;11.30;68.95;99704.11;4302948;81;28443;-87
2021/10/14 12:09:17;;;;;;;6.22;2.92;;;;;;;11.41;71.47;99703.09;4370570;78;28439;-87
2021/10/14 12:15:24;;;;;;;4.85;2.20;;;;;;;11.47;69.51;99703.58;4315864;81;28503;-86
2021/10/14 12:21:35;;;;;;;4.40;2.10;;;;;;;11.49;65.38;99709.56;4372287;80;28442;-84
2021/10/14 12:27:53;;;;;;;3.75;2.15;;;;;;;11.91;69.15;99704.09;4379751;81;28455;-85
2021/10/14 12:33:58;;;;;;;2.90;1.60;;;;;;;11.96;64.26;99692.94;4368026;81;28461;-83
2021/10/14 12:40:19;;;;;;;3.25;1.32;;;;;;;11.96;62.45;99684.02;4383870;81;28456;-82
2021/10/14 12:46:40;;;;;;;3.17;1.57;;;;;;;12.03;60.66;99684.80;4366316;80;28485;-83
2021/10/14 12:52:38;;;;;;;3.20;1.32;;;;;;;12.17;61.73;99685.98;4367664;80;28487;-83
2021/10/14 12:58:39;;;;;;;2.75;1.30;;;;;;;12.16;56.97;99672.22;4369102;81;28426;-82
2021/10/14 13:04:40;;;;;;;2.50;1.35;;;;;;;12.20;59.91;99672.08;4372258;80;28453;-83
2021/10/14 13:10:42;;;;;;;2.85;1.70;;;;;;;12.13;58.03;99661.35;4332186;81;28488;-83
2021/10/14 13:16:43;;;;;;;3.90;1.80;;;;;;;12.05;58.23;99656.30;4342070;79;28546;-82
2021/10/14 13:22:44;;;;;;;3.92;1.60;;;;;;;12.15;60.92;99649.84;4363207;81;28460;-83
2021/10/14 13:28:46;;;;;;;4.97;1.60;;;;;;;12.20;61.35;99637.03;4422846;80;28453;-86
2021/10/14 13:34:47;;;;;;;4.72;1.67;;;;;;;12.15;60.36;99630.97;4415764;80;28526;-86
2021/10/14 13:40:59;;;;;;;4.20;1.40;;;;;;;12.06;58.11;99625.05;4385632;80;28526;-85
2021/10/14 13:46:55;;;;;;;2.92;1.70;;;;;;;11.97;57.43;99619.64;4394962;81;28518;-86
2021/10/14 13:52:56;;;;;;;4.25;1.92;;;;;;;11.87;56.55;99620.19;4440896;79;28522;-85
2021/10/14 13:58:57;;;;;;;2.85;1.90;;;;;;;11.81;59.58;99617.86;4423472;80;28470;-87
2021/10/14 14:04:59;;;;;;;3.20;1.60;;;;;;;11.73;57.05;99612.77;4415721;81;28520;-84
2021/10/14 14:11:00;;;;;;;5.03;1.92;;;;;;;11.56;57.05;99612.55;4405674;81;28480;-86
2021/10/14 14:17:04;;;;;;;3.00;1.55;;;;;;;11.44;60.62;99609.25;4309706;81;28857;-87
2021/10/14 14:23:06;;;;;;;2.72;1.37;;;;;;;11.32;63.67;99607.00;4371357;80;28505;-84
2021/10/14 14:29:07;;;;;;;3.62;1.47;;;;;;;11.11;64.47;99596.94;4363039;80;28465;-86
2021/10/14 14:35:09;;;;;;;5.15;1.57;;;;;;;10.97;65.06;99602.11;4384287;80;28483;-86
2021/10/14 14:41:13;;;;;;;3.62;1.65;;;;;;;10.90;68.82;99601.36;4361204;81;28491;-84
2021/10/14 14:47:16;;;;;;;6.22;1.60;;;;;;;10.72;70.48;99590.30;4338201;80;28558;-82
2021/10/14 14:53:21;;;;;;;12.53;3.27;;;;;;;10.56;76.88;99595.69;4381625;79;28424;-86
2021/10/14 14:59:23;;;;;;;9.00;2.72;;;;;;;10.46;87.20;99594.83;4293038;81;28478;-84
2021/10/14 15:05:24;;;;;;;10.13;2.90;;;;;;;10.30;93.96;99598.83;4349321;80;28465;-87
2021/10/14 15:11:26;;;;;;;10.90;2.52;;;;;;;10.16;99.63;99599.95;4356422;80;28445;-85
2021/10/14 15:17:27;;;;;;;10.45;2.42;;;;;;;10.05;100.00;99593.38;4359309;80;28541;-84
2021/10/14 15:23:28;;;;;;;7.45;2.20;;;;;;;9.92;100.00;99592.91;4364425;81;28456;-86
2021/10/14 15:29:30;;;;;;;8.13;1.90;;;;;;;9.81;100.00;99592.23;4341089;81;28477;-89
2021/10/14 15:35:35;;;;;;;14.10;3.50;;;;;;;9.72;100.00;99588.97;4316483;81;28518;-84
2021/10/14 15:41:36;;;;;;;12.23;3.33;;;;;;;9.64;100.00;99592.72;4325241;81;28477;-86
2021/10/14 15:47:39;;;;;;;13.35;3.25;;;;;;;9.59;100.00;99593.34;4346655;80;28497;-83
2021/10/14 15:53:41;;;;;;;18.82;4.17;;;;;;;9.53;100.00;99596.02;4361808;81;28510;-86
2021/10/14 15:59:42;;;;;;;23.87;4.00;;;;;;;9.47;100.00;99594.50;4331572;81;28557;-86
2021/10/14 16:05:46;;;;;;;15.50;3.15;;;;;;;9.32;100.00;99593.90;4345697;81;28458;-84
2021/10/14 16:11:51;;;;;;;9.55;2.75;;;;;;;9.23;100.00;99591.96;4359339;81;28512;-87
2021/10/14 16:17:54;;;;;;;9.45;2.65;;;;;;;9.03;100.00;99588.78;4378757;80;28446;-84
2021/10/14 16:23:56;;;;;;;7.30;2.65;;;;;;;8.87;100.00;99599.41;4305811;82;28501;-85
2021/10/14 16:29:58;;;;;;;11.45;3.98;;;;;;;8.80;100.00;99593.23;4360985;80;28462;-84
2021/10/14 16:36:01;;;;;;;16.12;5.10;;;;;;;8.62;100.00;99592.48;4355452;82;28468;-85
2021/10/14 16:42:04;;;;;;;25.97;5.72;;;;;;;8.46;100.00;99593.67;4362781;81;28441;-84
2021/10/14 16:48:06;;;;;;;17.75;5.85;;;;;;;8.22;100.00;99598.03;4374587;79;28549;-85
2021/10/14 16:54:07;;;;;;;17.98;6.60;;;;;;;8.03;100.00;99596.95;4366841;81;28455;-83
2021/10/14 17:00:13;;;;;;;19.00;6.80;;;;;;;7.77;100.00;99603.03;4360025;79;28478;-85
2021/10/14 17:06:15;;;;;;;19.70;6.37;;;;;;;7.71;100.00;99609.19;4365433;80;28471;-85
2021/10/14 17:12:19;;;;;;;28.40;7.80;;;;;;;7.52;100.00;99611.03;4404253;80;28472;-85
2021/10/14 17:18:23;;;;;;;21.02;7.20;;;;;;;7.47;100.00;99609.47;4351032;80;28505;-84
2021/10/14 17:43:24;;;;;;;17.07;7.58;;;;;;;7.29;100.00;99597.94;4336018;80;28595;-84
2021/10/14 17:49:26;;;;;;;16.07;7.53;;;;;;;7.25;100.00;99601.52;4357380;80;28476;-86
2021/10/14 17:55:28;;;;;;;17.52;7.90;;;;;;;7.19;100.00;99597.46;4354521;81;28531;-85
2021/10/14 18:01:31;;;;;;;17.80;8.18;;;;;;;7.10;100.00;99603.44;4365815;80;28541;-85
2021/10/14 18:07:49;;;;;;;19.40;8.78;;;;;;;6.99;100.00;99611.50;4356590;81;28513;-86
2021/10/14 18:38:56;;;;;;;24.35;11.50;;;;;;;7.38;100.00;99615.99;4353843;80;28596;-83
2021/10/14 18:44:58;;;;;;;22.55;11.43;;;;;;;7.48;100.00;99613.80;4344710;80;28445;-82
2021/10/14 18:51:00;;;;;;;23.18;11.48;;;;;;;7.27;100.00;99605.84;4443036;78;28436;-85
2021/10/14 18:57:02;;;;;;;18.55;9.53;;;;;;;7.17;100.00;99602.16;4363202;80;28535;-86
2021/10/14 19:03:12;;;;;;;21.00;9.70;;;;;;;7.00;100.00;99605.63;4350241;80;28474;-83
2021/10/14 19:15:13;;;;;;;24.50;12.70;;;;;;;6.90;100.00;99596.09;4361648;80;28506;-84
2021/10/14 20:24:04;;;;;;;16.15;8.53;;;;;;;7.39;100.00;99580.19;4376184;80;28507;-94
2021/10/14 20:30:08;;;;;;;18.17;8.65;;;;;;;7.44;100.00;99582.27;4327383;81;28519;-86
2021/10/14 20:36:10;;;;;;;17.70;8.20;;;;;;;7.58;100.00;99584.52;4336776;80;28440;-86
2021/10/14 20:42:13;;;;;;;14.10;7.87;;;;;;;7.67;100.00;99580.13;4425742;79;28477;-88
2021/10/14 20:48:18;;;;;;;18.57;9.20;;;;;;;7.77;100.00;99578.44;4427535;80;28473;-84
2021/10/14 20:54:37;;;;;;;24.70;11.95;;;;;;;7.69;100.00;99571.91;4420596;80;28470;-87
2021/10/14 21:06:47;;;;;;;18.92;9.95;;;;;;;7.58;100.00;99567.13;4371470;80;28476;-89
2021/10/14 21:12:48;;;;;;;18.70;9.40;;;;;;;7.47;100.00;99568.00;4360806;80;28443;-86
2021/10/14 21:18:50;;;;;;;22.85;11.08;;;;;;;7.43;100.00;99558.69;4353871;81;28550;-87
2021/10/14 21:24:52;;;;;;;19.12;9.75;;;;;;;7.43;100.00;99561.90;4334504;81;28494;-87
2021/10/14 21:36:58;;;;;;;21.93;11.12;;;;;;;7.26;100.00;99562.20;4408933;81;28444;-86
2021/10/14 21:42:59;;;;;;;16.87;8.33;;;;;;;7.22;100.00;99556.94;4404722;79;28448;-86
2021/10/14 21:49:01;;;;;;;12.53;5.83;;;;;;;6.96;100.00;99557.91;4407164;79;28556;-87
2021/10/14 21:55:04;;;;;;;10.93;5.20;;;;;;;7.15;100.00;99563.59;4392286;79;28598;-89
2021/10/14 22:01:05;;;;;;;11.63;5.33;;;;;;;7.20;100.00;99561.14;4376425;80;28466;-89
2021/10/14 22:07:07;;;;;;;11.12;5.17;;;;;;;7.21;100.00;99552.09;4355925;81;28486;-86
2021/10/14 22:13:09;;;;;;;10.60;5.25;;;;;;;7.20;100.00;99553.64;4301384;81;28468;-85
2021/10/14 22:19:10;;;;;;;9.38;4.83;;;;;;;7.15;100.00;99556.91;4286245;82;28514;-86
2021/10/14 22:25:13;;;;;;;12.65;5.05;;;;;;;7.18;100.00;99552.98;4287442;82;28535;-86
2021/10/14 22:31:15;;;;;;;7.33;4.20;;;;;;;7.14;100.00;99545.06;4267580;82;28493;-85
2021/10/14 22:37:16;;;;;;;8.98;4.35;;;;;;;7.10;100.00;99544.62;4301932;82;28490;-86
2021/10/14 22:43:17;;;;;;;11.08;5.22;;;;;;;7.27;100.00;99541.64;4280678;82;28519;-87
2021/10/14 22:49:18;;;;;;;10.53;5.05;;;;;;;7.25;100.00;99537.81;4288540;82;28429;-87
2021/10/14 22:55:20;;;;;;;11.60;5.37;;;;;;;7.30;100.00;99534.55;4307789;82;28491;-88
2021/10/14 23:01:21;;;;;;;10.03;5.40;;;;;;;7.31;100.00;99537.54;4268470;82;28462;-85
2021/10/14 23:07:25;;;;;;;9.53;4.58;;;;;;;7.30;100.00;99523.86;4268527;82;28463;-87
2021/10/14 23:13:25;;;;;;;7.60;4.25;;;;;;;7.33;100.00;99512.75;4317524;82;28520;-86
2021/10/14 23:19:27;;;;;;;9.08;4.60;;;;;;;7.48;100.00;99512.63;4383051;81;28494;-85
2021/10/14 23:25:28;;;;;;;7.90;4.92;;;;;;;7.52;100.00;99516.56;4394803;81;28480;-86
2021/10/14 23:31:30;;;;;;;7.40;4.30;;;;;;;7.67;100.00;99514.55;4375634;81;28531;-85
2021/10/14 23:37:33;;;;;;;8.85;4.80;;;;;;;7.66;100.00;99510.23;4356969;81;28524;-84
2021/10/14 23:43:35;;;;;;;8.33;4.50;;;;;;;7.65;100.00;99505.91;4415174;80;28484;-86
2021/10/14 23:49:36;;;;;;;7.28;3.83;;;;;;;7.67;100.00;99512.41;4385814;81;28456;-85
2021/10/14 23:55:38;;;;;;;8.73;4.28;;;;;;;7.80;100.00;99504.91;4403355;80;28521;-85
